createdAt,value
2018-07-04T00:00:43.836Z,2.70
2018-07-04T00:03:24.081Z,2.83
2018-07-04T00:06:04.352Z,2.65
2018-07-04T00:08:44.710Z,2.80
2018-07-04T00:11:24.965Z,2.80
2018-07-04T00:14:05.400Z,2.90
2018-07-04T00:16:45.666Z,2.40
2018-07-04T00:19:26.220Z,3.25
2018-07-04T00:22:06.580Z,2.95
2018-07-04T00:24:46.833Z,2.72
2018-07-04T00:27:27.129Z,2.50
2018-07-04T00:30:08.641Z,2.80
2018-07-04T00:32:49.396Z,3.42
2018-07-04T00:35:33.064Z,3.33
2018-07-04T00:38:13.196Z,2.72
2018-07-04T00:40:53.621Z,2.80
2018-07-04T00:43:37.872Z,3.45
2018-07-04T00:46:21.443Z,3.45
2018-07-04T00:49:01.692Z,3.05
2018-07-04T00:51:41.906Z,3.58
2018-07-04T00:54:22.264Z,3.12
2018-07-04T00:57:03.041Z,3.40
2018-07-04T00:59:43.357Z,3.40
2018-07-04T01:02:23.586Z,3.10
2018-07-04T01:05:03.850Z,3.15
2018-07-04T01:07:44.712Z,2.95
2018-07-04T01:10:25.194Z,3.30
2018-07-04T01:13:05.934Z,3.90
2018-07-04T01:15:49.687Z,3.85
2018-07-04T01:18:29.994Z,3.10
2018-07-04T01:21:13.790Z,3.12
2018-07-04T01:23:54.504Z,2.83
2018-07-04T01:26:35.908Z,2.67
2018-07-04T01:29:16.290Z,3.17
2018-07-04T01:31:56.564Z,3.00
2018-07-04T01:34:40.607Z,2.77
2018-07-04T01:37:20.801Z,2.77
2018-07-04T01:40:01.087Z,3.00
2018-07-04T01:42:41.320Z,2.77
2018-07-04T01:45:21.544Z,2.67
2018-07-04T01:48:05.609Z,2.80
2018-07-04T01:50:45.767Z,2.67
2018-07-04T01:53:26.435Z,2.72
2018-07-04T01:56:06.928Z,2.80
2018-07-04T01:58:47.463Z,2.80
2018-07-04T02:01:27.709Z,2.73
2018-07-04T02:04:07.766Z,3.10
2018-07-04T02:06:55.760Z,2.33
2018-07-04T02:09:35.853Z,2.60
2018-07-04T02:12:15.958Z,2.75
2018-07-04T02:14:55.963Z,2.45
2018-07-04T02:17:36.272Z,2.90
2018-07-04T02:20:16.457Z,2.57
2018-07-04T02:22:56.627Z,2.60
2018-07-04T02:25:36.868Z,2.93
2018-07-04T02:28:17.074Z,3.23
2018-07-04T02:30:57.496Z,3.15
2018-07-04T02:33:37.640Z,3.30
2018-07-04T02:36:17.787Z,3.33
2018-07-04T02:38:58.308Z,3.20
2018-07-04T02:41:42.215Z,3.27
2018-07-04T02:44:22.593Z,3.17
2018-07-04T02:47:02.876Z,3.10
2018-07-04T02:49:43.381Z,3.23
2018-07-04T02:52:23.659Z,3.02
2018-07-04T02:55:04.334Z,3.20
2018-07-04T02:57:44.571Z,2.90
2018-07-04T03:00:24.798Z,3.27
2018-07-04T03:03:04.985Z,3.20
2018-07-04T03:05:45.116Z,3.10
2018-07-04T03:08:25.382Z,2.55
2018-07-04T03:11:05.367Z,2.80
2018-07-04T03:13:45.632Z,3.00
2018-07-04T03:16:25.861Z,3.00
2018-07-04T03:19:09.986Z,2.80
2018-07-04T03:21:50.091Z,2.50
2018-07-04T03:24:34.168Z,2.63
2018-07-04T03:27:14.433Z,2.52
2018-07-04T03:29:58.224Z,2.50
2018-07-04T03:32:42.212Z,2.30
2018-07-04T03:35:22.477Z,3.42
2018-07-04T03:38:08.269Z,2.20
2018-07-04T03:40:50.959Z,2.90
2018-07-04T03:43:42.126Z,2.50
2018-07-04T03:46:31.232Z,2.45
2018-07-04T03:49:12.394Z,2.45
2018-07-04T03:52:01.312Z,2.85
2018-07-04T03:54:41.944Z,2.60
2018-07-04T03:57:23.159Z,2.80
2018-07-04T04:00:06.394Z,2.70
2018-07-04T04:02:47.702Z,2.70
2018-07-04T04:05:38.748Z,2.45
2018-07-04T04:08:19.102Z,2.52
2018-07-04T04:11:04.296Z,2.33
2018-07-04T04:13:45.431Z,2.98
2018-07-04T04:19:57.806Z,2.55
2018-07-04T04:22:38.030Z,2.98
2018-07-04T04:25:18.651Z,2.67
2018-07-04T04:28:02.668Z,2.92
2018-07-04T04:30:51.870Z,2.95
2018-07-04T04:33:32.600Z,2.72
2018-07-04T04:36:13.095Z,2.60
2018-07-04T04:38:53.253Z,2.45
2018-07-04T04:41:33.697Z,2.50
2018-07-04T04:44:13.987Z,2.75
2018-07-04T04:46:54.324Z,2.80
2018-07-04T04:49:34.578Z,2.75
2018-07-04T04:52:14.813Z,2.58
2018-07-04T04:54:54.923Z,2.90
2018-07-04T04:57:35.416Z,2.35
2018-07-04T05:00:15.747Z,2.30
2018-07-04T05:02:56.089Z,2.55
2018-07-04T05:05:36.485Z,2.70
2018-07-04T05:08:16.619Z,2.62
2018-07-04T05:10:56.987Z,2.72
2018-07-04T05:13:37.292Z,2.60
2018-07-04T05:16:17.706Z,2.83
2018-07-04T05:18:58.161Z,2.58
2018-07-04T05:21:38.466Z,2.58
2018-07-04T05:24:18.954Z,2.72
2018-07-04T05:26:59.368Z,2.60
2018-07-04T05:29:44.816Z,2.80
2018-07-04T05:32:24.959Z,3.00
2018-07-04T05:35:05.142Z,3.02
2018-07-04T05:37:45.386Z,3.00
2018-07-04T05:40:25.676Z,2.80
2018-07-04T05:43:05.865Z,2.72
2018-07-04T05:45:46.153Z,2.70
2018-07-04T05:48:26.386Z,3.37
2018-07-04T05:51:13.810Z,3.02
2018-07-04T05:53:54.368Z,2.70
2018-07-04T05:56:34.658Z,2.58
2018-07-04T05:59:14.815Z,2.80
2018-07-04T06:01:55.031Z,2.62
2018-07-04T06:04:38.760Z,2.67
2018-07-04T06:07:19.866Z,2.72
2018-07-04T06:10:03.572Z,3.10
2018-07-04T06:12:43.875Z,3.00
2018-07-04T06:15:23.954Z,2.65
2018-07-04T06:18:04.251Z,2.60
2018-07-04T06:20:48.287Z,2.75
2018-07-04T06:23:28.441Z,2.10
2018-07-04T06:26:08.799Z,2.60
2018-07-04T06:28:48.973Z,2.50
2018-07-04T06:31:34.339Z,2.75
2018-07-04T06:34:18.799Z,2.52
2018-07-04T06:36:59.076Z,2.25
2018-07-04T06:39:36.038Z,2.40
2018-07-04T06:42:04.173Z,2.50
2018-07-04T06:44:32.212Z,2.45
2018-07-04T06:47:04.066Z,2.58
2018-07-04T06:49:32.170Z,3.33
2018-07-04T06:52:00.508Z,2.80
2018-07-04T06:54:28.466Z,2.70
2018-07-04T06:56:56.552Z,2.50
2018-07-04T06:59:24.992Z,2.10
2018-07-04T07:01:53.196Z,2.25
2018-07-04T07:04:34.040Z,2.42
2018-07-04T07:07:14.420Z,2.40
2018-07-04T07:09:59.715Z,2.67
2018-07-04T07:12:45.479Z,2.40
2018-07-04T07:15:29.005Z,2.25
2018-07-04T07:18:09.608Z,2.17
2018-07-04T07:21:00.667Z,2.35
2018-07-04T07:23:43.591Z,2.40
2018-07-04T07:26:24.213Z,2.10
2018-07-04T07:29:04.642Z,2.00
2018-07-04T07:31:45.091Z,2.00
2018-07-04T07:34:25.928Z,1.95
2018-07-04T07:37:10.460Z,2.30
2018-07-04T07:42:39.355Z,2.20
2018-07-04T07:45:21.956Z,1.80
2018-07-04T07:48:10.883Z,1.95
2018-07-04T07:50:59.138Z,2.08
2018-07-04T07:53:40.784Z,1.80
2018-07-04T07:56:21.352Z,2.10
2018-07-04T07:59:02.381Z,2.00
2018-07-04T08:01:44.557Z,2.20
2018-07-04T08:04:28.841Z,2.00
2018-07-04T08:07:10.096Z,1.82
2018-07-04T08:09:51.363Z,2.05
2018-07-04T08:12:32.596Z,2.20
2018-07-04T08:15:14.279Z,1.95
2018-07-04T08:17:54.711Z,2.12
2018-07-04T08:20:43.840Z,1.80
2018-07-04T08:23:28.518Z,1.85
2018-07-04T08:26:09.947Z,2.35
2018-07-04T08:28:59.317Z,1.90
2018-07-04T08:31:43.127Z,2.55
2018-07-04T08:34:38.508Z,1.98
2018-07-04T08:37:22.342Z,1.80
2018-07-04T08:40:04.134Z,2.00
2018-07-04T08:42:57.955Z,1.67
2018-07-04T08:45:51.169Z,1.87
2018-07-04T08:48:52.188Z,2.02
2018-07-04T08:51:34.664Z,2.40
2018-07-04T08:54:28.313Z,1.70
2018-07-04T08:57:19.585Z,1.98
2018-07-04T09:00:03.265Z,1.57
2018-07-04T09:02:53.382Z,1.42
2018-07-04T09:05:38.044Z,1.85
2018-07-04T09:08:20.743Z,2.00
2018-07-04T09:11:03.124Z,1.70
2018-07-04T09:17:22.587Z,1.20
2018-07-04T09:20:06.033Z,1.50
2018-07-04T09:23:01.069Z,1.50
2018-07-04T09:29:25.063Z,1.50
2018-07-04T09:32:36.081Z,1.60
2018-07-04T12:34:31.519Z,1.80
2018-07-04T12:37:08.188Z,2.20
2018-07-04T12:40:09.943Z,1.87
2018-07-04T12:42:42.521Z,2.30
2018-07-04T12:45:42.534Z,2.10
2018-07-04T12:48:26.371Z,2.05
2018-07-04T12:51:06.464Z,1.87
2018-07-04T12:54:18.458Z,2.08
2018-07-04T12:57:20.355Z,1.87
2018-07-04T13:00:30.714Z,1.67
2018-07-04T13:07:17.308Z,1.90
2018-07-04T13:13:43.753Z,2.02
2018-07-04T13:16:45.129Z,1.90
2018-07-04T13:19:32.217Z,2.25
2018-07-04T13:22:25.723Z,2.05
2018-07-04T13:25:08.718Z,1.95
2018-07-04T13:31:24.467Z,2.52
2018-07-04T13:34:16.326Z,2.80
2018-07-04T13:37:06.494Z,2.20
2018-07-04T13:40:02.944Z,2.47
2018-07-04T13:44:01.847Z,2.27
2018-07-04T13:50:21.615Z,2.30
2018-07-04T13:53:06.849Z,2.15
2018-07-04T13:56:01.534Z,2.10
2018-07-04T13:58:45.081Z,2.35
2018-07-04T14:04:58.704Z,2.12
2018-07-04T14:11:22.657Z,2.52
2018-07-04T14:17:39.318Z,2.40
2018-07-04T14:24:17.406Z,2.62
2018-07-04T14:27:07.254Z,2.62
2018-07-04T14:30:08.989Z,2.98
2018-07-04T14:41:23.012Z,3.05
2018-07-04T14:47:46.411Z,3.33
2018-07-04T15:02:50.525Z,2.45
2018-07-04T15:20:44.173Z,2.33
2018-07-04T15:54:43.677Z,2.10
2018-07-04T16:01:51.045Z,2.60
2018-07-04T16:11:21.897Z,2.30
2018-07-04T16:17:44.702Z,2.20
2018-07-04T16:20:27.351Z,2.45
2018-07-04T16:23:48.721Z,2.70
2018-07-04T16:29:44.624Z,2.25
2018-07-04T16:32:30.298Z,2.55
2018-07-04T16:35:13.800Z,2.75
2018-07-04T16:38:17.438Z,2.47
2018-07-04T16:41:04.325Z,2.60
2018-07-04T16:44:05.255Z,2.58
2018-07-04T16:54:07.263Z,2.30
2018-07-04T16:57:01.735Z,2.75
2018-07-04T16:59:58.711Z,2.33
2018-07-04T17:09:51.230Z,2.70
2018-07-04T17:12:36.436Z,2.80
2018-07-04T17:15:29.821Z,2.85
2018-07-04T17:18:16.620Z,3.08
2018-07-04T17:21:09.281Z,2.92
2018-07-04T17:37:59.056Z,3.30
2018-07-04T17:41:14.815Z,2.90
2018-07-04T17:44:26.023Z,2.60
2018-07-04T17:47:07.680Z,3.10
2018-07-04T17:49:58.776Z,2.55
2018-07-04T17:53:16.488Z,3.00
2018-07-04T17:56:07.796Z,3.00
2018-07-04T17:58:53.647Z,2.60
2018-07-04T18:04:47.459Z,2.98
2018-07-04T18:07:39.867Z,3.40
2018-07-04T18:10:37.460Z,3.42
2018-07-04T18:25:47.590Z,2.92
2018-07-04T18:28:40.614Z,3.10
2018-07-04T18:31:30.970Z,2.92
2018-07-04T18:36:59.081Z,2.77
2018-07-04T18:43:10.743Z,2.83
2018-07-04T18:46:06.933Z,3.05
2018-07-04T18:48:47.846Z,3.05
2018-07-04T18:51:28.540Z,2.67
2018-07-04T18:54:08.549Z,3.20
2018-07-04T18:56:48.730Z,2.77
2018-07-04T18:59:28.890Z,2.70
2018-07-04T19:02:08.911Z,2.70
2018-07-04T19:04:49.377Z,2.77
2018-07-04T19:07:29.540Z,2.70
2018-07-04T19:10:09.544Z,2.60
2018-07-04T19:12:49.594Z,2.75
2018-07-04T19:15:29.842Z,2.70
2018-07-04T19:18:09.997Z,3.05
2018-07-04T19:20:50.056Z,3.12
2018-07-04T19:23:31.045Z,2.75
2018-07-04T19:26:11.298Z,2.85
2018-07-04T19:28:51.482Z,3.02
2018-07-04T19:31:31.518Z,2.90
2018-07-04T19:34:11.760Z,2.70
2018-07-04T19:39:49.012Z,2.60
2018-07-04T19:42:29.063Z,3.15
2018-07-04T19:45:09.399Z,3.25
2018-07-04T19:47:49.678Z,2.98
2018-07-04T19:50:30.353Z,2.80
2018-07-04T19:53:10.297Z,2.75
2018-07-04T19:55:50.928Z,2.72
2018-07-04T19:58:50.651Z,2.67
2018-07-04T20:01:31.828Z,2.98
2018-07-04T20:04:27.142Z,2.83
2018-07-04T20:07:07.857Z,2.90
2018-07-04T20:09:51.901Z,2.90
2018-07-04T20:12:40.097Z,3.05
2018-07-04T20:15:29.233Z,2.83
2018-07-04T20:18:14.931Z,2.92
2018-07-04T20:20:58.088Z,2.70
2018-07-04T20:23:43.711Z,2.58
2018-07-04T20:33:40.300Z,3.50
2018-07-04T20:36:22.798Z,3.08
2018-07-04T20:39:04.513Z,3.25
2018-07-04T20:41:44.973Z,2.92
2018-07-04T20:44:26.882Z,3.10
2018-07-04T20:47:09.832Z,2.92
2018-07-04T20:49:50.489Z,3.40
2018-07-04T20:52:31.180Z,3.02
2018-07-04T20:55:13.718Z,3.00
2018-07-04T20:57:53.631Z,3.20
2018-07-04T21:00:33.856Z,3.10
2018-07-04T21:03:14.222Z,2.87
2018-07-04T21:05:54.351Z,2.95
2018-07-04T21:08:34.305Z,3.15
2018-07-04T21:11:17.467Z,3.33
2018-07-04T21:14:00.047Z,3.20
2018-07-04T21:16:40.129Z,2.72
2018-07-04T21:19:20.095Z,2.90
2018-07-04T21:22:00.107Z,2.77
2018-07-04T21:24:40.001Z,2.80
2018-07-04T21:27:19.942Z,2.75
2018-07-04T21:30:00.297Z,2.90
2018-07-04T21:32:40.265Z,2.65
2018-07-04T21:35:20.140Z,2.90
2018-07-04T21:38:00.162Z,3.50
2018-07-04T21:40:40.058Z,2.95
2018-07-04T21:43:20.311Z,3.15
2018-07-04T21:46:00.348Z,3.35
2018-07-04T21:48:40.308Z,3.05
2018-07-04T21:51:20.417Z,3.10
2018-07-04T21:54:00.279Z,3.25
2018-07-04T21:56:40.176Z,3.42
2018-07-04T21:59:20.078Z,2.75
2018-07-04T22:02:00.111Z,3.17
2018-07-04T22:04:40.193Z,3.50
2018-07-04T22:07:20.042Z,3.70
2018-07-04T22:10:00.111Z,3.00
2018-07-04T22:12:40.037Z,2.98
2018-07-04T22:15:20.152Z,3.10
2018-07-04T22:18:00.121Z,2.98
2018-07-04T22:20:39.946Z,3.20
2018-07-04T22:23:19.930Z,3.20
2018-07-04T22:25:59.884Z,3.05
2018-07-04T22:28:39.793Z,3.08
2018-07-04T22:31:19.720Z,3.27
2018-07-04T22:33:59.538Z,2.87
2018-07-04T22:36:39.779Z,2.92
2018-07-04T22:39:19.867Z,3.52
2018-07-04T22:41:59.881Z,3.15
2018-07-04T22:44:39.838Z,3.40
2018-07-04T22:47:19.793Z,4.28
2018-07-04T22:49:59.903Z,3.60
2018-07-04T22:52:40.104Z,3.40
2018-07-04T22:55:20.220Z,3.70
2018-07-04T22:58:00.407Z,3.72
2018-07-04T23:00:40.385Z,4.03
2018-07-04T23:03:20.404Z,3.83
2018-07-04T23:06:00.632Z,4.30
2018-07-04T23:08:40.486Z,3.98
2018-07-04T23:11:20.526Z,4.03
2018-07-04T23:14:00.494Z,4.08
2018-07-04T23:16:40.384Z,4.05
2018-07-04T23:19:20.188Z,4.10
2018-07-04T23:22:00.284Z,3.80
2018-07-04T23:24:40.240Z,4.15
2018-07-04T23:27:20.046Z,4.53
2018-07-04T23:29:59.994Z,4.17
2018-07-04T23:32:39.826Z,3.90
2018-07-04T23:35:19.893Z,4.28
2018-07-04T23:37:59.848Z,4.33
2018-07-04T23:40:39.740Z,4.10
2018-07-04T23:43:19.560Z,4.28
2018-07-04T23:45:59.452Z,4.50
2018-07-04T23:48:39.193Z,4.40
2018-07-04T23:51:19.338Z,4.58
2018-07-04T23:53:59.335Z,4.50
2018-07-04T23:56:39.362Z,4.60
2018-07-04T23:59:19.467Z,4.42
